Time;durP1;ratioP1;P1;durP2;ratioP2;P2;SDS_P1;SDS_P2;PMS_P1;PMS_P2;Temp;Humidity;BMP_temperature;BMP_pressure;BME280_temperature;BME280_humidity;BME280_pressure;Samples;Min_cycle;Max_cycle;Signal;HPM_P1;HPM_P2
2023/04/29 00:02:13;;;;;;;7.68;4.78;;;;;;;7.67;90.00;100694.34;5029715;28;20052;-70
2023/04/29 00:04:38;;;;;;;11.90;4.97;;;;;;;7.82;90.45;100739.66;5028760;28;20392;-71
2023/04/29 00:07:04;;;;;;;7.82;4.80;;;;;;;7.71;90.29;100733.94;5029162;28;20029;-73
2023/04/29 00:09:29;;;;;;;12.85;4.72;;;;;;;7.24;90.74;100700.66;5029991;28;20025;-72
2023/04/29 00:11:55;;;;;;;7.07;4.68;;;;;;;7.18;92.70;100744.00;5029813;28;20029;-71
2023/04/29 00:14:20;;;;;;;8.10;4.53;;;;;;;7.14;93.39;100734.34;5029691;28;20573;-72
2023/04/29 00:16:46;;;;;;;8.32;4.28;;;;;;;7.16;93.48;100749.84;5029826;28;20053;-71
2023/04/29 00:19:11;;;;;;;6.35;4.22;;;;;;;7.04;94.54;100740.66;5029831;28;20471;-72
2023/04/29 00:21:37;;;;;;;8.15;4.93;;;;;;;7.15;94.23;100746.38;5010993;28;20030;-69
2023/04/29 00:24:02;;;;;;;13.50;5.00;;;;;;;7.01;93.40;100752.44;5029379;28;20510;-69
2023/04/29 00:26:28;;;;;;;7.63;4.30;;;;;;;5.94;94.84;100647.22;5029468;28;20029;-71
2023/04/29 00:28:53;;;;;;;9.40;4.68;;;;;;;6.10;98.47;100745.53;5029908;28;20030;-72
2023/04/29 00:31:20;;;;;;;7.70;4.40;;;;;;;6.04;98.75;100729.81;5028735;28;20112;-71
2023/04/29 00:33:46;;;;;;;6.63;4.50;;;;;;;6.07;97.99;100745.34;5029883;28;20085;-70
2023/04/29 00:36:11;;;;;;;8.73;4.18;;;;;;;5.92;99.19;100748.75;5027085;28;20491;-71
2023/04/29 00:38:37;;;;;;;10.25;4.25;;;;;;;5.98;98.79;100736.34;5026406;28;20563;-69
2023/04/29 00:41:02;;;;;;;8.65;4.32;;;;;;;6.19;97.76;100746.06;5027505;28;20022;-71
2023/04/29 00:43:27;;;;;;;9.13;4.60;;;;;;;6.34;96.49;100732.41;5027481;28;20412;-70
2023/04/29 00:45:53;;;;;;;5.50;3.70;;;;;;;6.33;95.66;100734.09;5027579;28;20032;-71
2023/04/29 00:48:18;;;;;;;5.65;3.97;;;;;;;6.51;95.59;100749.66;5027772;28;20032;-71
2023/04/29 00:50:44;;;;;;;9.57;4.07;;;;;;;6.67;94.41;100742.81;5027758;28;20032;-71
2023/04/29 00:53:13;;;;;;;7.55;4.32;;;;;;;6.60;93.58;100752.75;5029210;28;20034;-73
2023/04/29 00:55:40;;;;;;;6.60;3.78;;;;;;;6.27;94.58;100685.03;5015691;28;20029;-71
2023/04/29 00:58:06;;;;;;;6.60;3.70;;;;;;;6.53;95.01;100727.53;5029676;28;20060;-73
2023/04/29 01:00:32;;;;;;;5.63;3.63;;;;;;;6.77;94.02;100729.75;5029466;28;20064;-71
2023/04/29 01:02:58;;;;;;;7.43;4.32;;;;;;;6.82;92.58;100736.00;5029139;28;20065;-74
2023/04/29 01:05:24;;;;;;;7.78;4.03;;;;;;;6.70;93.73;100743.00;5029161;28;20025;-72
2023/04/29 01:08:12;;;;;;;6.32;4.00;;;;;;;6.38;93.29;100690.75;5029189;28;20029;-73
2023/04/29 01:11:15;;;;;;;7.03;4.20;;;;;;;6.64;94.27;100743.53;5030981;28;20033;-73
2023/04/29 01:13:53;;;;;;;6.47;3.95;;;;;;;6.51;94.71;100741.94;5010281;28;20052;-71
2023/04/29 01:16:33;;;;;;;8.50;4.18;;;;;;;6.07;95.85;100688.97;5010498;28;20030;-70
2023/04/29 01:19:06;;;;;;;9.68;3.80;;;;;;;6.10;97.45;100723.34;5010557;28;20118;-73
2023/04/29 01:21:31;;;;;;;7.65;4.03;;;;;;;6.00;98.42;100736.41;5010689;28;20038;-73
2023/04/29 01:23:57;;;;;;;6.25;4.20;;;;;;;5.68;98.62;100691.78;5010454;28;20104;-71
2023/04/29 01:26:23;;;;;;;6.97;4.05;;;;;;;5.43;100.00;100645.88;5010247;28;20038;-74
2023/04/29 01:29:19;;;;;;;10.18;4.43;;;;;;;6.09;100.00;100738.66;5010415;28;20060;-71
2023/04/29 01:31:57;;;;;;;8.18;4.07;;;;;;;6.16;100.00;100733.09;5010235;28;20200;-74
2023/04/29 01:34:32;;;;;;;12.40;4.88;;;;;;;6.11;100.00;100716.56;5010214;28;20511;-72
2023/04/29 01:37:32;;;;;;;12.30;5.10;;;;;;;6.22;100.00;100702.69;5010252;28;20053;-70
2023/04/29 01:40:19;;;;;;;10.93;4.35;;;;;;;6.45;100.00;100718.50;5010068;28;20508;-73
2023/04/29 01:43:00;;;;;;;8.30;4.28;;;;;;;6.59;100.00;100722.75;5010029;28;20043;-73
2023/04/29 01:45:27;;;;;;;8.73;5.05;;;;;;;6.38;100.00;100666.00;5009905;28;20041;-71
2023/04/29 01:47:55;;;;;;;10.90;4.57;;;;;;;6.69;100.00;100718.13;5009969;28;20048;-73
2023/04/29 01:50:21;;;;;;;9.45;4.60;;;;;;;6.57;100.00;100698.69;5013172;28;20440;-73
2023/04/29 01:52:46;;;;;;;13.63;5.07;;;;;;;6.51;100.00;100677.81;5032238;28;20029;-71
2023/04/29 01:55:11;;;;;;;10.98;4.10;;;;;;;6.78;100.00;100713.53;5032190;28;20033;-73
2023/04/29 01:57:37;;;;;;;8.80;4.13;;;;;;;6.46;100.00;100666.44;5030615;28;20025;-72
2023/04/29 02:00:03;;;;;;;8.18;4.63;;;;;;;6.59;100.00;100697.13;5032170;28;20017;-73
2023/04/29 02:02:29;;;;;;;9.40;4.20;;;;;;;6.59;100.00;100711.59;5032155;28;20175;-70
2023/04/29 02:04:54;;;;;;;7.53;4.70;;;;;;;6.30;100.00;100673.22;5046203;28;20116;-76
2023/04/29 02:07:20;;;;;;;13.18;4.10;;;;;;;6.29;100.00;100666.34;5032085;28;20084;-72
2023/04/29 02:09:46;;;;;;;9.77;4.43;;;;;;;6.63;100.00;100706.75;5031946;28;20083;-75
2023/04/29 02:12:12;;;;;;;8.65;4.47;;;;;;;6.61;100.00;100699.75;5031770;28;20044;-73
2023/04/29 02:14:38;;;;;;;10.52;4.68;;;;;;;6.64;100.00;100702.47;5032030;28;20104;-73
2023/04/29 02:17:04;;;;;;;8.88;4.28;;;;;;;6.67;100.00;100706.91;5032336;28;20091;-70
2023/04/29 02:19:30;;;;;;;7.20;4.45;;;;;;;6.40;97.41;100704.53;5032031;28;20029;-74
2023/04/29 02:21:56;;;;;;;11.23;4.47;;;;;;;6.20;96.07;100698.28;5031152;28;20037;-74
2023/04/29 02:24:21;;;;;;;8.45;3.80;;;;;;;6.06;95.06;100700.03;5031587;28;20435;-74
2023/04/29 02:26:47;;;;;;;6.82;4.00;;;;;;;6.01;95.22;100704.88;5031529;28;20434;-75
2023/04/29 02:29:12;;;;;;;6.97;4.22;;;;;;;6.05;94.59;100705.94;5031904;28;20424;-71
2023/04/29 02:31:37;;;;;;;6.70;3.70;;;;;;;5.87;94.84;100701.47;5031781;28;20033;-78
2023/04/29 02:34:03;;;;;;;6.20;3.75;;;;;;;5.68;95.33;100658.47;5031565;28;20049;-73
2023/04/29 02:36:29;;;;;;;8.18;4.22;;;;;;;6.03;94.72;100704.97;5031526;28;20038;-76
2023/04/29 02:38:55;;;;;;;8.73;4.20;;;;;;;5.92;93.01;100686.34;5031184;28;20033;-71
2023/04/29 02:41:21;;;;;;;7.43;3.80;;;;;;;5.70;93.11;100650.91;5030943;28;20039;-71
2023/04/29 02:43:47;;;;;;;9.15;4.18;;;;;;;5.96;93.73;100696.88;5031015;28;20414;-73
2023/04/29 02:46:15;;;;;;;5.80;3.65;;;;;;;5.89;93.07;100693.88;5045524;28;20503;-71
2023/04/29 02:48:40;;;;;;;7.00;3.80;;;;;;;5.99;92.43;100696.19;5031226;28;20057;-71
2023/04/29 02:51:06;;;;;;;8.48;3.83;;;;;;;6.10;91.77;100696.84;5031511;28;20071;-76
2023/04/29 02:53:31;;;;;;;6.22;3.97;;;;;;;6.13;91.45;100699.56;5031057;28;20044;-72
2023/04/29 02:55:57;;;;;;;6.53;3.88;;;;;;;5.93;91.29;100683.91;5030945;28;20036;-72
2023/04/29 02:58:23;;;;;;;7.22;3.63;;;;;;;6.00;91.90;100703.09;5030874;28;20030;-74
2023/04/29 03:00:48;;;;;;;6.40;3.50;;;;;;;5.87;92.95;100708.25;5031039;28;20108;-70
2023/04/29 03:03:14;;;;;;;4.95;3.50;;;;;;;5.78;93.56;100703.47;5031132;28;20121;-71
2023/04/29 03:05:40;;;;;;;8.07;4.07;;;;;;;5.47;94.23;100704.16;5031163;28;20112;-73
2023/04/29 03:08:06;;;;;;;9.02;4.38;;;;;;;5.25;95.78;100704.53;5030368;28;20498;-77
2023/04/29 03:10:31;;;;;;;10.82;4.45;;;;;;;5.23;96.92;100709.53;5030781;28;20112;-71
2023/04/29 03:12:57;;;;;;;6.07;4.07;;;;;;;5.17;97.31;100710.06;5030737;28;20112;-75
2023/04/29 03:15:22;;;;;;;8.70;4.60;;;;;;;5.16;97.84;100713.41;5030784;28;20037;-71
2023/04/29 03:17:48;;;;;;;9.18;4.43;;;;;;;4.92;97.55;100656.47;5030416;28;20059;-71
2023/04/29 03:20:13;;;;;;;14.40;5.00;;;;;;;5.30;96.98;100704.03;5030875;28;20104;-76
2023/04/29 03:22:39;;;;;;;7.40;4.70;;;;;;;5.27;95.69;100703.84;5030509;28;20040;-71
2023/04/29 03:25:05;;;;;;;12.45;4.70;;;;;;;5.11;97.49;100701.09;5030256;28;20091;-73
2023/04/29 03:27:30;;;;;;;5.90;4.18;;;;;;;5.07;98.30;100702.59;5030353;28;20026;-73
2023/04/29 03:29:56;;;;;;;9.82;5.07;;;;;;;5.00;98.58;100711.56;5030658;28;20380;-71
2023/04/29 03:32:21;;;;;;;13.98;4.55;;;;;;;4.95;98.63;100700.16;5030144;28;20385;-72
2023/04/29 03:34:48;;;;;;;6.57;4.65;;;;;;;5.08;98.76;100708.59;5029502;28;20064;-70
2023/04/29 03:37:15;;;;;;;10.98;5.53;;;;;;;4.99;99.32;100720.00;5030287;28;20083;-71
2023/04/29 03:39:40;;;;;;;8.23;4.95;;;;;;;4.86;99.96;100679.13;5030358;28;20487;-75
2023/04/29 03:42:06;;;;;;;8.57;5.03;;;;;;;5.13;98.67;100717.44;5030214;28;20029;-71
2023/04/29 03:44:31;;;;;;;11.60;4.82;;;;;;;4.97;98.14;100716.50;5030082;28;20065;-72
2023/04/29 03:46:57;;;;;;;7.85;5.07;;;;;;;5.02;98.79;100714.19;5030275;28;20036;-71
2023/04/29 03:49:22;;;;;;;7.82;4.60;;;;;;;5.16;98.53;100723.63;5030445;28;20422;-71
2023/04/29 03:51:48;;;;;;;7.63;4.70;;;;;;;5.04;97.61;100665.69;5029986;28;20460;-69
2023/04/29 03:54:13;;;;;;;9.38;4.82;;;;;;;5.40;96.79;100722.53;5030061;28;20030;-71
2023/04/29 03:56:59;;;;;;;8.50;5.32;;;;;;;5.32;97.03;100725.50;5047079;28;20076;-69
2023/04/29 03:59:24;;;;;;;12.57;6.95;;;;;;;5.27;96.39;100721.75;5047575;28;20115;-72
2023/04/29 04:01:51;;;;;;;16.98;9.32;;;;;;;5.16;97.12;100712.53;5047112;28;20045;-72
2023/04/29 04:04:16;;;;;;;10.68;5.57;;;;;;;5.26;97.88;100724.19;5047110;28;20067;-69
2023/04/29 04:06:43;;;;;;;8.50;4.45;;;;;;;5.34;97.97;100729.00;5046270;28;20493;-71
2023/04/29 04:09:08;;;;;;;12.50;6.53;;;;;;;5.39;97.51;100729.31;5030793;28;20044;-72
2023/04/29 04:11:35;;;;;;;14.82;6.63;;;;;;;5.15;97.08;100672.38;5046757;28;20037;-69
2023/04/29 04:14:00;;;;;;;13.60;6.20;;;;;;;5.51;96.93;100731.75;5047059;28;20526;-70
2023/04/29 04:16:26;;;;;;;7.30;5.03;;;;;;;5.62;97.10;100737.50;5046865;28;20037;-69
2023/04/29 04:18:52;;;;;;;7.63;4.32;;;;;;;5.66;97.24;100742.06;5047343;28;20033;-69
2023/04/29 04:21:17;;;;;;;7.22;5.13;;;;;;;5.67;96.50;100728.47;5046707;28;20037;-73
2023/04/29 04:23:43;;;;;;;7.15;5.18;;;;;;;5.66;96.08;100742.91;5047102;28;20566;-73
2023/04/29 04:26:08;;;;;;;7.90;4.75;;;;;;;5.66;96.10;100742.91;5047017;28;20029;-74
2023/04/29 04:28:34;;;;;;;7.82;4.88;;;;;;;5.52;96.06;100730.97;5034056;28;20431;-70
2023/04/29 04:30:59;;;;;;;6.32;4.63;;;;;;;5.55;96.79;100738.81;5029538;28;20025;-76
2023/04/29 04:33:25;;;;;;;9.00;4.90;;;;;;;5.45;98.00;100724.56;5029816;28;20132;-70
2023/04/29 04:35:50;;;;;;;10.32;5.43;;;;;;;5.65;97.90;100747.97;5029734;28;20404;-72
2023/04/29 04:38:16;;;;;;;8.25;5.25;;;;;;;5.73;97.59;100754.44;5029607;28;20037;-73
2023/04/29 04:40:42;;;;;;;7.95;5.03;;;;;;;5.76;98.37;100753.75;5029480;28;20532;-70
2023/04/29 04:43:08;;;;;;;7.60;5.03;;;;;;;5.72;99.03;100747.53;5028225;28;20030;-72
2023/04/29 04:45:33;;;;;;;8.82;5.32;;;;;;;5.82;99.60;100756.69;5029587;28;20039;-71
2023/04/29 04:47:59;;;;;;;9.13;5.18;;;;;;;5.65;100.00;100719.78;5033576;28;20033;-71
2023/04/29 04:50:27;;;;;;;8.80;5.55;;;;;;;5.75;100.00;100746.84;5033200;28;20036;-74
2023/04/29 04:52:54;;;;;;;8.87;5.43;;;;;;;5.31;100.00;100677.63;5030411;28;20047;-71
2023/04/29 04:55:19;;;;;;;8.43;5.72;;;;;;;5.69;100.00;100749.03;5033825;28;20279;-72
2023/04/29 04:57:45;;;;;;;8.02;5.47;;;;;;;5.75;100.00;100737.47;5033519;28;20025;-73
2023/04/29 05:00:11;;;;;;;7.30;5.60;;;;;;;5.87;100.00;100751.81;5032851;28;20120;-73
2023/04/29 05:02:36;;;;;;;10.00;5.60;;;;;;;5.81;100.00;100758.34;5033417;28;20104;-72
2023/04/29 05:05:02;;;;;;;7.93;5.65;;;;;;;5.75;100.00;100741.72;5032440;28;20152;-73
2023/04/29 05:07:27;;;;;;;9.45;5.80;;;;;;;5.81;100.00;100753.22;5033182;28;20060;-70
2023/04/29 05:09:52;;;;;;;9.98;5.93;;;;;;;5.83;100.00;100746.53;5033204;28;20030;-70
2023/04/29 05:12:18;;;;;;;10.68;6.70;;;;;;;5.96;100.00;100742.13;5032956;28;20028;-73
2023/04/29 05:14:43;;;;;;;11.20;6.70;;;;;;;6.15;100.00;100752.69;5032519;28;20026;-74
2023/04/29 05:17:10;;;;;;;7.55;5.65;;;;;;;6.25;100.00;100743.88;5033593;28;20464;-74
2023/04/29 05:19:35;;;;;;;8.93;6.53;;;;;;;6.31;100.00;100748.50;5030600;28;20068;-70
2023/04/29 05:22:00;;;;;;;9.15;6.35;;;;;;;6.22;100.00;100750.50;5033127;28;20071;-70
2023/04/29 05:24:26;;;;;;;13.68;6.10;;;;;;;6.30;100.00;100750.16;5032893;28;20033;-72
2023/04/29 05:26:53;;;;;;;11.27;6.80;;;;;;;6.46;100.00;100751.06;5032449;28;20493;-73
2023/04/29 05:29:18;;;;;;;10.57;6.85;;;;;;;6.60;100.00;100746.72;5032747;28;20021;-77
2023/04/29 05:31:43;;;;;;;13.93;6.68;;;;;;;6.85;100.00;100751.56;5032716;28;20113;-72
2023/04/29 05:34:09;;;;;;;12.85;6.60;;;;;;;7.00;100.00;100753.22;5031857;28;20427;-71
2023/04/29 05:36:34;;;;;;;9.82;6.63;;;;;;;7.10;100.00;100764.09;5032889;28;20040;-69
2023/04/29 05:39:00;;;;;;;11.07;6.45;;;;;;;7.22;100.00;100752.75;5032470;28;20049;-69
2023/04/29 05:41:25;;;;;;;12.10;6.93;;;;;;;7.28;100.00;100740.25;5032376;28;20112;-73
2023/04/29 05:43:51;;;;;;;10.75;7.90;;;;;;;7.37;100.00;100750.13;5032341;28;20026;-73
2023/04/29 05:46:16;;;;;;;13.45;8.65;;;;;;;7.32;100.00;100728.44;5032356;28;20063;-72
2023/04/29 05:48:42;;;;;;;14.57;7.70;;;;;;;7.58;100.00;100751.28;5032002;28;20497;-70
2023/04/29 05:51:08;;;;;;;12.10;7.40;;;;;;;7.72;100.00;100746.88;5032642;28;20112;-72
2023/04/29 05:53:34;;;;;;;10.23;7.65;;;;;;;7.86;100.00;100749.28;5032204;28;20056;-70
2023/04/29 05:56:03;;;;;;;12.43;6.10;;;;;;;7.98;100.00;100746.47;5032358;28;20092;-73
2023/04/29 05:58:29;;;;;;;10.95;6.40;;;;;;;8.09;100.00;100747.91;5031267;28;20054;-73
2023/04/29 06:00:54;;;;;;;11.38;7.00;;;;;;;8.11;100.00;100725.72;5032232;28;20100;-70
2023/04/29 06:03:20;;;;;;;9.45;6.22;;;;;;;8.26;100.00;100725.59;5031782;28;20029;-71
2023/04/29 06:05:45;;;;;;;10.98;6.18;;;;;;;8.42;100.00;100724.69;5032076;28;20030;-73
2023/04/29 06:08:10;;;;;;;9.75;7.25;;;;;;;8.57;100.00;100735.78;5031456;28;20519;-73
2023/04/29 06:10:36;;;;;;;9.00;6.22;;;;;;;8.70;100.00;100729.53;5031737;28;20039;-70
2023/04/29 06:13:02;;;;;;;10.95;5.88;;;;;;;8.67;100.00;100682.19;5031878;28;20108;-71
2023/04/29 06:15:27;;;;;;;8.18;5.55;;;;;;;9.21;100.00;100720.78;5031858;28;20167;-75
2023/04/29 06:17:53;;;;;;;10.55;7.75;;;;;;;9.34;100.00;100717.94;5031396;28;20026;-69
2023/04/29 06:20:18;;;;;;;8.43;6.22;;;;;;;9.43;96.88;100702.00;5031703;28;20483;-71
2023/04/29 06:22:44;;;;;;;12.35;5.72;;;;;;;9.64;96.99;100698.66;5031840;28;20487;-73
2023/04/29 06:25:09;;;;;;;10.57;6.38;;;;;;;9.62;96.82;100689.94;5031780;28;20033;-71
2023/04/29 06:27:35;;;;;;;8.05;6.35;;;;;;;9.65;95.73;100682.38;5031201;28;20032;-71
2023/04/29 06:30:00;;;;;;;8.18;5.95;;;;;;;9.82;95.27;100709.78;5031972;28;20047;-74
2023/04/29 06:32:26;;;;;;;10.05;6.38;;;;;;;9.77;95.66;100711.28;5031599;28;20029;-70
2023/04/29 06:34:51;;;;;;;7.90;5.70;;;;;;;9.80;96.03;100692.47;5031665;28;20061;-71
2023/04/29 06:37:16;;;;;;;13.15;6.63;;;;;;;9.79;95.38;100712.19;5031251;28;20080;-76
2023/04/29 06:39:42;;;;;;;10.50;6.30;;;;;;;9.78;96.39;100713.03;5031534;28;20021;-70
2023/04/29 06:42:07;;;;;;;9.43;6.25;;;;;;;9.83;96.64;100705.47;5031321;28;20084;-74
2023/04/29 06:44:32;;;;;;;7.97;5.80;;;;;;;9.88;95.49;100699.72;5031194;28;20059;-72
2023/04/29 06:46:58;;;;;;;10.27;5.47;;;;;;;9.73;96.10;100650.06;5031176;28;20104;-73
2023/04/29 06:49:24;;;;;;;9.35;5.60;;;;;;;10.16;94.85;100695.72;5031037;28;20033;-70
2023/04/29 06:51:49;;;;;;;9.15;5.72;;;;;;;10.31;94.79;100702.38;5028570;28;20057;-73
2023/04/29 06:54:15;;;;;;;12.70;8.70;;;;;;;10.51;93.99;100701.50;5031184;28;20057;-73
2023/04/29 06:56:40;;;;;;;8.38;5.95;;;;;;;10.64;94.84;100678.78;5031017;28;20440;-73
2023/04/29 06:59:06;;;;;;;9.75;5.88;;;;;;;10.79;94.98;100687.16;5031309;28;20029;-70
2023/04/29 07:01:32;;;;;;;11.07;6.28;;;;;;;11.02;92.34;100689.72;5031175;28;20029;-73
2023/04/29 07:03:57;;;;;;;9.48;7.45;;;;;;;10.90;93.13;100687.53;5044977;28;20095;-74
2023/04/29 07:06:22;;;;;;;8.50;6.45;;;;;;;11.07;91.60;100684.75;5030790;28;20029;-72
2023/04/29 07:08:48;;;;;;;8.48;6.25;;;;;;;11.25;91.12;100667.38;5030582;28;20025;-72
2023/04/29 07:11:14;;;;;;;9.20;5.82;;;;;;;11.55;92.10;100673.59;5031050;28;20030;-72
2023/04/29 07:13:39;;;;;;;8.82;5.47;;;;;;;11.75;88.79;100682.06;5031190;28;20380;-73
2023/04/29 07:16:13;;;;;;;8.85;5.97;;;;;;;11.87;86.65;100677.31;5031161;28;20457;-73
2023/04/29 07:18:39;;;;;;;9.30;5.90;;;;;;;11.96;87.13;100679.38;5029806;28;20041;-73
2023/04/29 07:21:05;;;;;;;9.68;5.93;;;;;;;12.14;86.11;100674.84;5030961;28;20025;-74
2023/04/29 07:23:30;;;;;;;11.00;6.03;;;;;;;11.60;86.95;100577.28;5031157;28;20036;-71
2023/04/29 07:25:55;;;;;;;8.07;5.80;;;;;;;12.34;84.25;100677.22;5030859;28;20468;-70
2023/04/29 07:28:21;;;;;;;8.27;5.47;;;;;;;12.29;82.16;100642.53;5031137;28;20032;-70
2023/04/29 07:30:46;;;;;;;9.43;5.35;;;;;;;12.41;81.44;100634.28;5029741;28;20037;-70
2023/04/29 07:33:12;;;;;;;7.22;5.07;;;;;;;12.57;81.67;100667.63;5030562;28;20110;-70
2023/04/29 07:35:37;;;;;;;8.43;4.80;;;;;;;12.50;80.53;100652.72;5031032;28;20818;-71
2023/04/29 07:38:03;;;;;;;6.95;5.07;;;;;;;12.74;80.01;100669.84;5030956;28;20051;-70
2023/04/29 07:40:28;;;;;;;10.45;4.88;;;;;;;12.89;77.62;100664.25;5030706;28;20035;-69
2023/04/29 07:42:53;;;;;;;7.50;5.03;;;;;;;12.82;72.95;100663.19;5030781;28;20049;-73
2023/04/29 07:45:19;;;;;;;8.32;4.50;;;;;;;12.93;76.77;100666.09;5030687;28;20032;-74
2023/04/29 07:47:45;;;;;;;7.70;3.95;;;;;;;12.85;67.79;100672.78;5030631;28;20071;-76
2023/04/29 07:50:11;;;;;;;5.65;3.50;;;;;;;12.81;72.92;100664.03;5030783;28;20056;-71
2023/04/29 07:52:37;;;;;;;6.53;4.10;;;;;;;12.84;71.42;100663.25;5030841;28;20029;-71
2023/04/29 07:55:02;;;;;;;6.32;3.25;;;;;;;13.03;68.96;100665.53;5030644;28;20029;-75
2023/04/29 07:57:28;;;;;;;7.43;3.88;;;;;;;13.40;63.08;100661.47;5030373;28;20400;-73
2023/04/29 07:59:53;;;;;;;7.65;3.63;;;;;;;13.43;61.45;100653.78;5018901;28;20056;-70
2023/04/29 08:02:19;;;;;;;6.68;3.25;;;;;;;13.56;60.88;100642.03;5020783;28;20559;-70
2023/04/29 08:04:45;;;;;;;7.72;3.40;;;;;;;13.69;59.82;100642.38;5018876;28;20392;-72
2023/04/29 08:07:11;;;;;;;5.32;2.63;;;;;;;13.75;56.53;100638.22;5020536;28;20407;-70
2023/04/29 08:09:37;;;;;;;7.15;3.38;;;;;;;13.78;58.31;100639.16;5020739;28;20157;-72
2023/04/29 08:12:02;;;;;;;10.30;3.63;;;;;;;13.73;58.09;100634.72;5017793;28;20465;-70
2023/04/29 08:14:28;;;;;;;6.63;2.65;;;;;;;13.42;57.75;100601.84;5020487;28;20483;-70
2023/04/29 08:16:54;;;;;;;6.57;3.03;;;;;;;13.61;56.61;100628.31;5020169;28;20391;-71
2023/04/29 08:19:20;;;;;;;5.35;2.88;;;;;;;13.72;56.73;100630.38;5018992;28;20064;-71
2023/04/29 08:21:46;;;;;;;9.40;3.00;;;;;;;13.91;54.62;100620.47;5040311;28;20077;-72
2023/04/29 08:24:12;;;;;;;5.65;2.80;;;;;;;13.70;51.80;100554.19;5010127;28;20061;-71
2023/04/29 08:26:39;;;;;;;4.35;3.03;;;;;;;14.24;57.48;100603.97;5014304;28;20462;-69
2023/04/29 08:29:04;;;;;;;5.65;3.42;;;;;;;14.21;56.56;100614.28;5018968;28;20037;-70
2023/04/29 08:31:30;;;;;;;5.15;3.10;;;;;;;14.16;56.61;100610.72;5017620;28;20029;-73
2023/04/29 08:33:57;;;;;;;7.10;3.20;;;;;;;14.12;54.49;100582.88;5020040;28;20053;-69
2023/04/29 08:36:23;;;;;;;5.38;3.20;;;;;;;14.36;55.70;100598.19;5020693;28;20113;-71
2023/04/29 08:38:51;;;;;;;10.82;3.45;;;;;;;14.38;51.81;100578.31;5016797;28;20152;-73
2023/04/29 08:41:17;;;;;;;6.18;3.22;;;;;;;14.69;52.31;100594.63;5017992;28;20028;-72
2023/04/29 08:43:42;;;;;;;4.50;2.80;;;;;;;14.83;54.00;100593.22;5019963;28;20030;-70
2023/04/29 08:46:09;;;;;;;8.55;2.95;;;;;;;14.88;49.95;100578.59;5018549;28;20033;-76
2023/04/29 08:48:36;;;;;;;6.25;3.20;;;;;;;15.02;50.83;100580.59;5020178;28;20026;-71
2023/04/29 08:51:02;;;;;;;5.70;2.90;;;;;;;14.87;53.40;100591.56;5020475;28;20018;-72
2023/04/29 08:53:28;;;;;;;6.82;3.47;;;;;;;14.77;53.04;100587.88;5018715;28;20542;-73
2023/04/29 08:55:56;;;;;;;7.03;3.22;;;;;;;14.92;53.57;100573.47;5020086;28;20502;-74
2023/04/29 08:58:24;;;;;;;5.35;2.92;;;;;;;14.94;49.30;100553.56;5020282;28;20022;-75
2023/04/29 09:00:50;;;;;;;6.60;3.25;;;;;;;15.10;48.64;100552.16;5018616;28;20029;-70
2023/04/29 09:03:30;;;;;;;16.38;7.10;;;;;;;15.34;49.48;100569.97;5019696;28;20029;-71
2023/04/29 09:05:59;;;;;;;13.15;6.00;;;;;;;15.48;49.76;100568.50;5019573;28;20030;-73
2023/04/29 09:08:26;;;;;;;5.53;3.33;;;;;;;15.40;49.42;100553.59;5018578;28;20034;-73
2023/04/29 09:10:52;;;;;;;7.40;3.53;;;;;;;15.62;47.06;100568.75;5020245;28;20022;-71
2023/04/29 09:13:29;;;;;;;6.07;2.95;;;;;;;15.65;47.71;100565.31;5019536;28;20111;-73
2023/04/29 09:15:55;;;;;;;5.00;3.00;;;;;;;15.82;48.73;100555.22;5017588;28;20022;-71
2023/04/29 09:18:42;;;;;;;7.28;3.45;;;;;;;16.02;51.07;100555.56;5019117;28;20420;-70
2023/04/29 09:21:24;;;;;;;7.22;2.90;;;;;;;16.24;48.52;100553.31;5020696;28;20017;-73
2023/04/29 09:23:58;;;;;;;6.18;2.92;;;;;;;16.45;44.70;100547.53;5020606;28;20070;-73
2023/04/29 09:26:24;;;;;;;6.10;2.88;;;;;;;16.53;44.37;100545.88;5020364;28;20021;-74
2023/04/29 09:29:12;;;;;;;6.05;3.60;;;;;;;16.54;41.79;100526.78;5018391;28;20121;-71
2023/04/29 09:31:39;;;;;;;4.50;2.70;;;;;;;16.50;41.21;100530.22;5019396;28;20113;-73
2023/04/29 09:34:05;;;;;;;6.38;2.90;;;;;;;16.47;43.57;100535.38;5021812;28;20049;-71
2023/04/29 09:36:44;;;;;;;7.00;3.80;;;;;;;16.53;41.98;100529.38;5020640;28;20041;-71
2023/04/29 09:39:38;;;;;;;4.30;2.90;;;;;;;16.29;41.26;100523.84;5018779;28;20067;-69
2023/04/29 09:42:04;;;;;;;4.90;2.67;;;;;;;16.13;41.87;100516.66;5026396;28;20126;-70
2023/04/29 09:44:36;;;;;;;4.25;2.53;;;;;;;16.21;40.80;100522.84;5020945;28;20415;-72
2023/04/29 09:47:06;;;;;;;6.80;2.65;;;;;;;16.39;42.57;100521.38;5027707;28;20029;-72
2023/04/29 09:49:44;;;;;;;5.00;2.80;;;;;;;16.42;40.91;100508.38;5029935;28;20491;-72
2023/04/29 09:52:12;;;;;;;5.72;2.85;;;;;;;16.61;43.29;100507.78;5032574;28;20039;-72
2023/04/29 09:54:40;;;;;;;3.42;2.20;;;;;;;16.83;42.12;100497.59;5032388;28;20041;-69
2023/04/29 09:57:07;;;;;;;5.60;2.67;;;;;;;16.80;41.74;100493.22;5032459;28;20502;-68
2023/04/29 09:59:36;;;;;;;6.43;2.55;;;;;;;17.21;41.58;100499.81;5032303;28;20484;-70
2023/04/29 10:02:16;;;;;;;5.30;2.60;;;;;;;17.01;41.49;100491.78;5014757;28;20116;-67
2023/04/29 10:04:45;;;;;;;6.20;2.50;;;;;;;16.77;40.85;100493.22;5033674;28;20064;-71
2023/04/29 10:07:15;;;;;;;6.00;2.50;;;;;;;17.02;41.55;100492.63;5032008;28;20124;-69
2023/04/29 10:09:42;;;;;;;4.32;2.38;;;;;;;17.07;40.58;100491.84;5030656;28;20107;-71
2023/04/29 10:12:08;;;;;;;6.68;2.40;;;;;;;17.19;39.22;100488.47;5032309;28;20029;-72
2023/04/29 10:14:43;;;;;;;6.45;2.55;;;;;;;17.39;42.59;100482.56;5030586;28;20033;-72
2023/04/29 10:17:22;;;;;;;6.20;2.47;;;;;;;17.57;42.62;100474.91;5032105;28;20040;-71
2023/04/29 10:20:04;;;;;;;5.80;2.60;;;;;;;17.88;41.70;100469.91;5031320;28;20044;-68
2023/04/29 10:22:39;;;;;;;7.93;2.42;;;;;;;17.94;41.92;100467.38;5044294;28;20044;-71
2023/04/29 10:25:06;;;;;;;4.82;2.42;;;;;;;17.75;40.63;100453.28;5031685;28;20117;-71
2023/04/29 10:27:33;;;;;;;4.03;2.28;;;;;;;17.71;41.15;100450.66;5031687;28;20087;-71
2023/04/29 10:30:01;;;;;;;5.70;2.58;;;;;;;17.74;41.24;100448.03;5031416;28;20025;-71
2023/04/29 10:32:29;;;;;;;7.95;3.35;;;;;;;18.02;40.39;100456.97;5031818;28;20026;-71
2023/04/29 10:34:55;;;;;;;4.18;2.28;;;;;;;18.05;41.60;100449.13;5045795;28;20057;-72
2023/04/29 10:37:22;;;;;;;5.55;2.42;;;;;;;17.92;41.14;100449.94;5031716;28;20033;-71
2023/04/29 10:40:07;;;;;;;6.80;3.20;;;;;;;17.94;40.75;100443.88;5031432;28;20021;-69
2023/04/29 10:42:51;;;;;;;5.80;2.85;;;;;;;17.98;40.16;100446.50;5031100;28;20025;-72
2023/04/29 10:45:31;;;;;;;11.15;3.08;;;;;;;17.75;43.33;100447.19;5031480;28;20377;-68
2023/04/29 10:48:07;;;;;;;7.68;3.13;;;;;;;17.58;41.28;100447.06;5031688;28;20029;-72
2023/04/29 10:50:34;;;;;;;6.43;3.15;;;;;;;17.79;41.34;100436.78;5031516;28;20029;-69
2023/04/29 10:53:06;;;;;;;7.55;2.95;;;;;;;18.05;47.67;100451.75;5031272;28;20036;-69
2023/04/29 10:55:36;;;;;;;5.45;2.83;;;;;;;18.06;45.60;100440.44;5031223;28;20032;-71
2023/04/29 10:58:03;;;;;;;7.65;2.95;;;;;;;17.94;45.94;100435.16;5031003;28;20498;-70
2023/04/29 11:00:31;;;;;;;4.70;2.70;;;;;;;17.73;42.29;100436.75;5031295;28;20037;-70
2023/04/29 11:02:58;;;;;;;6.95;2.40;;;;;;;17.70;46.13;100420.19;5040896;28;20080;-69
2023/04/29 11:05:34;;;;;;;5.55;2.60;;;;;;;18.00;43.43;100429.09;5031175;28;20091;-69
2023/04/29 11:08:23;;;;;;;7.60;3.03;;;;;;;18.09;42.61;100403.00;5031216;28;20021;-69
2023/04/29 11:11:00;;;;;;;4.13;2.10;;;;;;;18.15;39.97;100412.63;4992639;28;20476;-69
2023/04/29 11:13:28;;;;;;;6.43;3.05;;;;;;;17.84;43.43;100420.25;5008793;28;20069;-69
2023/04/29 11:16:05;;;;;;;3.75;2.40;;;;;;;18.29;42.89;100416.16;5008199;28;20038;-69
2023/04/29 11:18:30;;;;;;;6.25;2.72;;;;;;;18.46;41.36;100408.41;5008826;28;20022;-70
2023/04/29 11:21:05;;;;;;;6.70;2.55;;;;;;;18.52;41.35;100412.78;5008614;28;20045;-69
2023/04/29 11:23:37;;;;;;;8.00;2.65;;;;;;;18.60;41.19;100418.91;5008535;28;20037;-69
2023/04/29 11:26:03;;;;;;;5.70;2.38;;;;;;;18.78;40.06;100405.00;5008526;28;20076;-69
2023/04/29 11:28:32;;;;;;;4.57;2.72;;;;;;;18.71;44.63;100409.34;5007933;28;20065;-70
2023/04/29 11:30:58;;;;;;;5.68;2.70;;;;;;;18.88;40.29;100380.59;5008369;28;20136;-69